Gatesville, Texas
Current Conditions -  °F | °C
As of 1:35 PM on Monday 20 Oct 2014 (Local Time) from KGOP Reporting Station
Few Clouds Few Clouds  
Wind Chill: 79°   Ceiling: Unl
Heat Index: 80°   Visibility: 10mi
Dew Point: 61°   Wind: 3mph
Humidity: 54%   Direction: 30°NNE
Pressure: 30.09"   Gusts: NA
Location:  31.43°N, 97.74°W
Report Text: KGOP 201835Z AUTO 03003KT 10SM FEW037 26/16 A3009 RMK AO2
Loading
Personal Weather Stations






























Interactive Weather Map
Tropical Storm Tracking
New forecast layout! Learn more

10-Day Weather Forecast

Advertisements
Track Severe Weather on mobile